sensor_id;sensor_type;location;lat;lon;timestamp;P1;durP1;ratioP1;P2;durP2;ratioP2
64678;SDS011;51094;53.864;27.676;2023-08-12T00:01:45;1.90;;;1.90;;
64678;SDS011;51094;53.864;27.676;2023-08-12T00:04:12;2.00;;;2.00;;
64678;SDS011;51094;53.864;27.676;2023-08-12T00:06:41;2.17;;;2.17;;
64678;SDS011;51094;53.864;27.676;2023-08-12T00:09:09;1.90;;;1.90;;
64678;SDS011;51094;53.864;27.676;2023-08-12T00:11:41;1.80;;;1.80;;
64678;SDS011;51094;53.864;27.676;2023-08-12T00:14:08;1.98;;;1.98;;
64678;SDS011;51094;53.864;27.676;2023-08-12T00:16:36;2.00;;;2.00;;
64678;SDS011;51094;53.864;27.676;2023-08-12T00:19:03;1.80;;;1.80;;
64678;SDS011;51094;53.864;27.676;2023-08-12T00:21:30;1.80;;;1.80;;
64678;SDS011;51094;53.864;27.676;2023-08-12T00:23:57;1.80;;;1.80;;
64678;SDS011;51094;53.864;27.676;2023-08-12T00:26:24;1.70;;;1.70;;
64678;SDS011;51094;53.864;27.676;2023-08-12T00:28:50;1.98;;;1.98;;
64678;SDS011;51094;53.864;27.676;2023-08-12T00:31:17;1.90;;;1.90;;
64678;SDS011;51094;53.864;27.676;2023-08-12T00:33:46;1.90;;;1.90;;
64678;SDS011;51094;53.864;27.676;2023-08-12T00:36:12;1.80;;;1.80;;
64678;SDS011;51094;53.864;27.676;2023-08-12T00:38:39;1.60;;;1.60;;
64678;SDS011;51094;53.864;27.676;2023-08-12T00:41:06;2.10;;;2.10;;
64678;SDS011;51094;53.864;27.676;2023-08-12T00:43:33;2.00;;;2.00;;
64678;SDS011;51094;53.864;27.676;2023-08-12T00:46:00;1.80;;;1.80;;
64678;SDS011;51094;53.864;27.676;2023-08-12T00:48:27;1.90;;;1.90;;
64678;SDS011;51094;53.864;27.676;2023-08-12T00:50:54;2.10;;;2.10;;
64678;SDS011;51094;53.864;27.676;2023-08-12T00:53:21;1.83;;;1.83;;
64678;SDS011;51094;53.864;27.676;2023-08-12T00:55:48;1.85;;;1.85;;
64678;SDS011;51094;53.864;27.676;2023-08-12T00:58:14;1.90;;;1.90;;
64678;SDS011;51094;53.864;27.676;2023-08-12T01:00:42;2.00;;;2.00;;
64678;SDS011;51094;53.864;27.676;2023-08-12T01:03:09;2.00;;;2.00;;
64678;SDS011;51094;53.864;27.676;2023-08-12T01:05:36;2.00;;;2.00;;
64678;SDS011;51094;53.864;27.676;2023-08-12T01:08:08;2.00;;;2.00;;
64678;SDS011;51094;53.864;27.676;2023-08-12T01:10:36;2.08;;;2.08;;
64678;SDS011;51094;53.864;27.676;2023-08-12T01:15:48;1.83;;;1.83;;
64678;SDS011;51094;53.864;27.676;2023-08-12T01:18:20;1.90;;;1.90;;
64678;SDS011;51094;53.864;27.676;2023-08-12T01:20:48;1.88;;;1.88;;
64678;SDS011;51094;53.864;27.676;2023-08-12T01:23:15;1.90;;;1.90;;
64678;SDS011;51094;53.864;27.676;2023-08-12T01:25:43;2.00;;;2.00;;
64678;SDS011;51094;53.864;27.676;2023-08-12T01:28:10;1.85;;;1.85;;
64678;SDS011;51094;53.864;27.676;2023-08-12T01:30:44;1.67;;;1.67;;
64678;SDS011;51094;53.864;27.676;2023-08-12T01:33:20;1.80;;;1.80;;
64678;SDS011;51094;53.864;27.676;2023-08-12T01:35:55;1.80;;;1.80;;
64678;SDS011;51094;53.864;27.676;2023-08-12T01:38:33;1.80;;;1.80;;
64678;SDS011;51094;53.864;27.676;2023-08-12T01:41:02;1.67;;;1.67;;
64678;SDS011;51094;53.864;27.676;2023-08-12T01:43:29;1.90;;;1.90;;
64678;SDS011;51094;53.864;27.676;2023-08-12T01:45:57;1.70;;;1.70;;
64678;SDS011;51094;53.864;27.676;2023-08-12T01:48:25;2.00;;;2.00;;
64678;SDS011;51094;53.864;27.676;2023-08-12T01:50:51;1.80;;;1.80;;
64678;SDS011;51094;53.864;27.676;2023-08-12T01:53:18;1.85;;;1.85;;
64678;SDS011;51094;53.864;27.676;2023-08-12T01:55:45;1.83;;;1.83;;
64678;SDS011;51094;53.864;27.676;2023-08-12T01:58:12;2.08;;;2.08;;
64678;SDS011;51094;53.864;27.676;2023-08-12T02:00:39;1.70;;;1.70;;
64678;SDS011;51094;53.864;27.676;2023-08-12T02:03:06;1.60;;;1.60;;
64678;SDS011;51094;53.864;27.676;2023-08-12T02:05:33;1.95;;;1.95;;
64678;SDS011;51094;53.864;27.676;2023-08-12T02:08:00;1.70;;;1.70;;
64678;SDS011;51094;53.864;27.676;2023-08-12T02:10:27;1.80;;;1.80;;
64678;SDS011;51094;53.864;27.676;2023-08-12T02:12:54;1.83;;;1.83;;
64678;SDS011;51094;53.864;27.676;2023-08-12T02:15:21;1.80;;;1.80;;
64678;SDS011;51094;53.864;27.676;2023-08-12T02:17:48;1.90;;;1.90;;
64678;SDS011;51094;53.864;27.676;2023-08-12T02:20:16;1.70;;;1.70;;
64678;SDS011;51094;53.864;27.676;2023-08-12T02:22:45;1.90;;;1.90;;
64678;SDS011;51094;53.864;27.676;2023-08-12T02:25:12;1.80;;;1.80;;
64678;SDS011;51094;53.864;27.676;2023-08-12T02:27:39;1.70;;;1.70;;
64678;SDS011;51094;53.864;27.676;2023-08-12T02:30:06;1.80;;;1.80;;
64678;SDS011;51094;53.864;27.676;2023-08-12T02:32:33;1.70;;;1.70;;
64678;SDS011;51094;53.864;27.676;2023-08-12T02:35:00;1.70;;;1.70;;
64678;SDS011;51094;53.864;27.676;2023-08-12T02:37:29;1.70;;;1.70;;
64678;SDS011;51094;53.864;27.676;2023-08-12T02:39:56;1.75;;;1.75;;
64678;SDS011;51094;53.864;27.676;2023-08-12T02:42:22;1.80;;;1.80;;
64678;SDS011;51094;53.864;27.676;2023-08-12T02:44:49;1.60;;;1.60;;
64678;SDS011;51094;53.864;27.676;2023-08-12T02:47:16;1.70;;;1.70;;
64678;SDS011;51094;53.864;27.676;2023-08-12T02:49:43;1.60;;;1.60;;
64678;SDS011;51094;53.864;27.676;2023-08-12T02:52:10;1.80;;;1.80;;
64678;SDS011;51094;53.864;27.676;2023-08-12T02:54:37;1.42;;;1.42;;
64678;SDS011;51094;53.864;27.676;2023-08-12T02:57:03;1.67;;;1.67;;
64678;SDS011;51094;53.864;27.676;2023-08-12T02:59:30;1.70;;;1.70;;
64678;SDS011;51094;53.864;27.676;2023-08-12T03:01:57;1.80;;;1.80;;
64678;SDS011;51094;53.864;27.676;2023-08-12T03:04:26;1.50;;;1.50;;
64678;SDS011;51094;53.864;27.676;2023-08-12T03:06:53;1.50;;;1.50;;
64678;SDS011;51094;53.864;27.676;2023-08-12T03:09:20;1.63;;;1.63;;
64678;SDS011;51094;53.864;27.676;2023-08-12T03:11:47;1.42;;;1.42;;
64678;SDS011;51094;53.864;27.676;2023-08-12T03:14:14;1.50;;;1.50;;
64678;SDS011;51094;53.864;27.676;2023-08-12T03:16:42;1.70;;;1.70;;
64678;SDS011;51094;53.864;27.676;2023-08-12T03:19:09;1.40;;;1.40;;
64678;SDS011;51094;53.864;27.676;2023-08-12T03:21:36;1.40;;;1.40;;
64678;SDS011;51094;53.864;27.676;2023-08-12T03:24:03;1.63;;;1.63;;
64678;SDS011;51094;53.864;27.676;2023-08-12T03:26:30;1.30;;;1.30;;
64678;SDS011;51094;53.864;27.676;2023-08-12T03:28:57;1.60;;;1.60;;
64678;SDS011;51094;53.864;27.676;2023-08-12T03:31:26;1.40;;;1.40;;
64678;SDS011;51094;53.864;27.676;2023-08-12T03:33:52;1.30;;;1.30;;
64678;SDS011;51094;53.864;27.676;2023-08-12T03:36:19;1.35;;;1.35;;
64678;SDS011;51094;53.864;27.676;2023-08-12T03:38:47;1.33;;;1.33;;
64678;SDS011;51094;53.864;27.676;2023-08-12T03:41:19;1.50;;;1.50;;
64678;SDS011;51094;53.864;27.676;2023-08-12T03:43:45;1.40;;;1.40;;
64678;SDS011;51094;53.864;27.676;2023-08-12T03:46:13;1.42;;;1.42;;
64678;SDS011;51094;53.864;27.676;2023-08-12T03:48:40;1.40;;;1.40;;
64678;SDS011;51094;53.864;27.676;2023-08-12T03:51:07;1.50;;;1.50;;
64678;SDS011;51094;53.864;27.676;2023-08-12T03:53:34;1.45;;;1.45;;
64678;SDS011;51094;53.864;27.676;2023-08-12T03:56:01;1.30;;;1.30;;
64678;SDS011;51094;53.864;27.676;2023-08-12T03:58:29;1.30;;;1.30;;
64678;SDS011;51094;53.864;27.676;2023-08-12T04:00:57;1.17;;;1.17;;
64678;SDS011;51094;53.864;27.676;2023-08-12T04:03:24;1.30;;;1.30;;
64678;SDS011;51094;53.864;27.676;2023-08-12T04:05:52;1.17;;;1.17;;
64678;SDS011;51094;53.864;27.676;2023-08-12T04:08:23;1.20;;;1.20;;
64678;SDS011;51094;53.864;27.676;2023-08-12T04:10:51;1.40;;;1.40;;
64678;SDS011;51094;53.864;27.676;2023-08-12T04:13:18;1.25;;;1.25;;
64678;SDS011;51094;53.864;27.676;2023-08-12T04:15:49;1.20;;;1.20;;
64678;SDS011;51094;53.864;27.676;2023-08-12T04:18:17;1.27;;;1.27;;
64678;SDS011;51094;53.864;27.676;2023-08-12T04:20:45;1.10;;;1.10;;
64678;SDS011;51094;53.864;27.676;2023-08-12T04:23:16;1.20;;;1.20;;
64678;SDS011;51094;53.864;27.676;2023-08-12T04:25:44;1.40;;;1.40;;
64678;SDS011;51094;53.864;27.676;2023-08-12T04:28:12;1.40;;;1.40;;
64678;SDS011;51094;53.864;27.676;2023-08-12T04:30:44;1.30;;;1.30;;
64678;SDS011;51094;53.864;27.676;2023-08-12T04:33:13;1.20;;;1.20;;
64678;SDS011;51094;53.864;27.676;2023-08-12T04:35:41;1.48;;;1.48;;
64678;SDS011;51094;53.864;27.676;2023-08-12T04:38:09;1.40;;;1.40;;
64678;SDS011;51094;53.864;27.676;2023-08-12T04:40:40;1.20;;;1.20;;
64678;SDS011;51094;53.864;27.676;2023-08-12T04:43:08;1.30;;;1.30;;
64678;SDS011;51094;53.864;27.676;2023-08-12T04:45:36;1.20;;;1.20;;
64678;SDS011;51094;53.864;27.676;2023-08-12T04:48:05;1.30;;;1.30;;
64678;SDS011;51094;53.864;27.676;2023-08-12T04:50:35;1.33;;;1.33;;
64678;SDS011;51094;53.864;27.676;2023-08-12T04:53:02;1.10;;;1.10;;
64678;SDS011;51094;53.864;27.676;2023-08-12T04:55:29;1.10;;;1.10;;
64678;SDS011;51094;53.864;27.676;2023-08-12T04:57:58;1.27;;;1.27;;
64678;SDS011;51094;53.864;27.676;2023-08-12T05:00:25;1.10;;;1.10;;
64678;SDS011;51094;53.864;27.676;2023-08-12T05:02:56;1.10;;;1.10;;
64678;SDS011;51094;53.864;27.676;2023-08-12T05:05:25;1.20;;;1.20;;
64678;SDS011;51094;53.864;27.676;2023-08-12T05:07:52;1.10;;;1.10;;
64678;SDS011;51094;53.864;27.676;2023-08-12T05:10:19;1.17;;;1.17;;
64678;SDS011;51094;53.864;27.676;2023-08-12T05:12:46;1.20;;;1.20;;
64678;SDS011;51094;53.864;27.676;2023-08-12T05:15:15;1.10;;;1.10;;
64678;SDS011;51094;53.864;27.676;2023-08-12T05:17:42;1.10;;;1.10;;
64678;SDS011;51094;53.864;27.676;2023-08-12T05:20:11;1.17;;;1.17;;
64678;SDS011;51094;53.864;27.676;2023-08-12T05:22:38;1.20;;;1.20;;
64678;SDS011;51094;53.864;27.676;2023-08-12T05:25:05;1.02;;;1.02;;
64678;SDS011;51094;53.864;27.676;2023-08-12T05:27:32;1.20;;;1.20;;
64678;SDS011;51094;53.864;27.676;2023-08-12T05:29:59;1.10;;;1.10;;
64678;SDS011;51094;53.864;27.676;2023-08-12T05:32:26;0.98;;;0.98;;
64678;SDS011;51094;53.864;27.676;2023-08-12T05:34:53;1.10;;;1.10;;
64678;SDS011;51094;53.864;27.676;2023-08-12T05:37:19;1.40;;;1.40;;
64678;SDS011;51094;53.864;27.676;2023-08-12T05:39:46;1.30;;;1.30;;
64678;SDS011;51094;53.864;27.676;2023-08-12T05:42:13;1.10;;;1.10;;
64678;SDS011;51094;53.864;27.676;2023-08-12T05:44:41;1.15;;;1.15;;
64678;SDS011;51094;53.864;27.676;2023-08-12T05:47:12;1.10;;;1.10;;
64678;SDS011;51094;53.864;27.676;2023-08-12T05:49:39;1.08;;;1.08;;
64678;SDS011;51094;53.864;27.676;2023-08-12T05:52:08;1.10;;;1.10;;
64678;SDS011;51094;53.864;27.676;2023-08-12T05:54:35;1.00;;;1.00;;
64678;SDS011;51094;53.864;27.676;2023-08-12T05:57:02;1.10;;;1.10;;
64678;SDS011;51094;53.864;27.676;2023-08-12T05:59:29;1.10;;;1.10;;
64678;SDS011;51094;53.864;27.676;2023-08-12T06:01:56;1.20;;;1.20;;
64678;SDS011;51094;53.864;27.676;2023-08-12T06:04:23;0.98;;;0.98;;
64678;SDS011;51094;53.864;27.676;2023-08-12T06:06:49;0.90;;;0.90;;
64678;SDS011;51094;53.864;27.676;2023-08-12T06:09:17;0.90;;;0.90;;
64678;SDS011;51094;53.864;27.676;2023-08-12T06:11:45;0.80;;;0.80;;
64678;SDS011;51094;53.864;27.676;2023-08-12T06:14:12;1.10;;;1.10;;
64678;SDS011;51094;53.864;27.676;2023-08-12T06:16:39;1.00;;;1.00;;
64678;SDS011;51094;53.864;27.676;2023-08-12T06:19:05;1.05;;;1.05;;
64678;SDS011;51094;53.864;27.676;2023-08-12T06:21:32;0.98;;;0.98;;
64678;SDS011;51094;53.864;27.676;2023-08-12T06:23:59;0.90;;;0.90;;
64678;SDS011;51094;53.864;27.676;2023-08-12T06:26:26;0.90;;;0.90;;
64678;SDS011;51094;53.864;27.676;2023-08-12T06:28:53;1.10;;;1.10;;
64678;SDS011;51094;53.864;27.676;2023-08-12T06:31:20;0.90;;;0.90;;
64678;SDS011;51094;53.864;27.676;2023-08-12T06:33:46;1.10;;;1.10;;
64678;SDS011;51094;53.864;27.676;2023-08-12T06:36:13;0.80;;;0.80;;
64678;SDS011;51094;53.864;27.676;2023-08-12T06:38:40;0.80;;;0.80;;
64678;SDS011;51094;53.864;27.676;2023-08-12T06:41:07;1.10;;;1.10;;
64678;SDS011;51094;53.864;27.676;2023-08-12T06:43:34;0.70;;;0.70;;
64678;SDS011;51094;53.864;27.676;2023-08-12T06:46:01;0.90;;;0.90;;
64678;SDS011;51094;53.864;27.676;2023-08-12T06:48:29;0.80;;;0.80;;
64678;SDS011;51094;53.864;27.676;2023-08-12T06:50:56;0.70;;;0.70;;
64678;SDS011;51094;53.864;27.676;2023-08-12T06:53:24;0.90;;;0.90;;
64678;SDS011;51094;53.864;27.676;2023-08-12T06:55:52;1.10;;;1.10;;
64678;SDS011;51094;53.864;27.676;2023-08-12T06:58:19;0.80;;;0.80;;
64678;SDS011;51094;53.864;27.676;2023-08-12T07:00:46;0.90;;;0.90;;
64678;SDS011;51094;53.864;27.676;2023-08-12T07:03:13;0.70;;;0.70;;
64678;SDS011;51094;53.864;27.676;2023-08-12T07:05:40;0.80;;;0.80;;
64678;SDS011;51094;53.864;27.676;2023-08-12T07:08:07;0.68;;;0.68;;
64678;SDS011;51094;53.864;27.676;2023-08-12T07:10:33;0.80;;;0.80;;
64678;SDS011;51094;53.864;27.676;2023-08-12T07:13:00;0.68;;;0.68;;
64678;SDS011;51094;53.864;27.676;2023-08-12T07:15:27;0.70;;;0.70;;
64678;SDS011;51094;53.864;27.676;2023-08-12T07:17:54;1.00;;;1.00;;
64678;SDS011;51094;53.864;27.676;2023-08-12T07:20:21;1.15;;;1.15;;
64678;SDS011;51094;53.864;27.676;2023-08-12T07:22:48;0.77;;;0.77;;
64678;SDS011;51094;53.864;27.676;2023-08-12T07:25:15;0.70;;;0.70;;
64678;SDS011;51094;53.864;27.676;2023-08-12T07:27:42;0.80;;;0.80;;
64678;SDS011;51094;53.864;27.676;2023-08-12T07:30:09;0.60;;;0.60;;
64678;SDS011;51094;53.864;27.676;2023-08-12T07:32:36;0.80;;;0.80;;
64678;SDS011;51094;53.864;27.676;2023-08-12T07:35:04;0.70;;;0.70;;
64678;SDS011;51094;53.864;27.676;2023-08-12T07:37:32;0.70;;;0.70;;
64678;SDS011;51094;53.864;27.676;2023-08-12T07:39:59;0.80;;;0.80;;
64678;SDS011;51094;53.864;27.676;2023-08-12T07:42:26;0.70;;;0.70;;
64678;SDS011;51094;53.864;27.676;2023-08-12T07:44:53;0.60;;;0.60;;
64678;SDS011;51094;53.864;27.676;2023-08-12T07:47:19;0.70;;;0.70;;
64678;SDS011;51094;53.864;27.676;2023-08-12T07:49:46;0.68;;;0.68;;
64678;SDS011;51094;53.864;27.676;2023-08-12T07:52:13;0.70;;;0.70;;
64678;SDS011;51094;53.864;27.676;2023-08-12T07:54:40;0.73;;;0.73;;
64678;SDS011;51094;53.864;27.676;2023-08-12T07:57:07;0.70;;;0.70;;
64678;SDS011;51094;53.864;27.676;2023-08-12T07:59:34;0.80;;;0.80;;
64678;SDS011;51094;53.864;27.676;2023-08-12T08:02:01;0.90;;;0.90;;
64678;SDS011;51094;53.864;27.676;2023-08-12T08:04:28;0.80;;;0.80;;
64678;SDS011;51094;53.864;27.676;2023-08-12T08:06:55;0.80;;;0.80;;
64678;SDS011;51094;53.864;27.676;2023-08-12T08:09:22;0.60;;;0.60;;
64678;SDS011;51094;53.864;27.676;2023-08-12T08:11:49;1.50;;;1.50;;
64678;SDS011;51094;53.864;27.676;2023-08-12T08:14:16;0.88;;;0.88;;
64678;SDS011;51094;53.864;27.676;2023-08-12T08:16:42;1.50;;;1.50;;
64678;SDS011;51094;53.864;27.676;2023-08-12T08:19:09;0.70;;;0.70;;
64678;SDS011;51094;53.864;27.676;2023-08-12T08:24:06;0.90;;;0.90;;
64678;SDS011;51094;53.864;27.676;2023-08-12T08:26:34;0.65;;;0.65;;
64678;SDS011;51094;53.864;27.676;2023-08-12T08:29:01;0.73;;;0.73;;
64678;SDS011;51094;53.864;27.676;2023-08-12T08:31:29;0.70;;;0.70;;
64678;SDS011;51094;53.864;27.676;2023-08-12T08:33:56;0.70;;;0.70;;
64678;SDS011;51094;53.864;27.676;2023-08-12T08:36:23;0.70;;;0.70;;
64678;SDS011;51094;53.864;27.676;2023-08-12T08:38:49;0.70;;;0.70;;
64678;SDS011;51094;53.864;27.676;2023-08-12T08:41:17;0.70;;;0.70;;
64678;SDS011;51094;53.864;27.676;2023-08-12T08:43:44;0.68;;;0.68;;
64678;SDS011;51094;53.864;27.676;2023-08-12T08:46:14;0.70;;;0.70;;
64678;SDS011;51094;53.864;27.676;2023-08-12T08:48:43;0.60;;;0.60;;
64678;SDS011;51094;53.864;27.676;2023-08-12T08:51:10;0.70;;;0.70;;
64678;SDS011;51094;53.864;27.676;2023-08-12T08:53:39;0.68;;;0.68;;
64678;SDS011;51094;53.864;27.676;2023-08-12T08:56:11;0.73;;;0.73;;
64678;SDS011;51094;53.864;27.676;2023-08-12T08:58:41;0.88;;;0.88;;
64678;SDS011;51094;53.864;27.676;2023-08-12T09:01:08;0.75;;;0.75;;
64678;SDS011;51094;53.864;27.676;2023-08-12T09:03:35;0.68;;;0.68;;
64678;SDS011;51094;53.864;27.676;2023-08-12T09:06:05;0.70;;;0.70;;
64678;SDS011;51094;53.864;27.676;2023-08-12T09:08:32;0.63;;;0.63;;
64678;SDS011;51094;53.864;27.676;2023-08-12T09:11:00;0.70;;;0.70;;
64678;SDS011;51094;53.864;27.676;2023-08-12T09:13:29;0.70;;;0.70;;
64678;SDS011;51094;53.864;27.676;2023-08-12T09:15:56;0.60;;;0.60;;
64678;SDS011;51094;53.864;27.676;2023-08-12T09:18:23;0.60;;;0.60;;
64678;SDS011;51094;53.864;27.676;2023-08-12T09:20:51;0.70;;;0.70;;
64678;SDS011;51094;53.864;27.676;2023-08-12T09:23:18;0.70;;;0.70;;
64678;SDS011;51094;53.864;27.676;2023-08-12T09:25:45;0.70;;;0.70;;
64678;SDS011;51094;53.864;27.676;2023-08-12T09:28:12;0.60;;;0.60;;
64678;SDS011;51094;53.864;27.676;2023-08-12T09:30:40;0.73;;;0.73;;
64678;SDS011;51094;53.864;27.676;2023-08-12T09:33:07;0.70;;;0.70;;
64678;SDS011;51094;53.864;27.676;2023-08-12T09:35:38;0.60;;;0.60;;
64678;SDS011;51094;53.864;27.676;2023-08-12T09:38:07;0.60;;;0.60;;
64678;SDS011;51094;53.864;27.676;2023-08-12T09:40:37;0.65;;;0.65;;
64678;SDS011;51094;53.864;27.676;2023-08-12T09:43:05;0.60;;;0.60;;
64678;SDS011;51094;53.864;27.676;2023-08-12T09:45:33;0.70;;;0.70;;
64678;SDS011;51094;53.864;27.676;2023-08-12T09:48:01;0.50;;;0.50;;
64678;SDS011;51094;53.864;27.676;2023-08-12T09:50:28;0.60;;;0.60;;
64678;SDS011;51094;53.864;27.676;2023-08-12T09:52:55;0.70;;;0.70;;
64678;SDS011;51094;53.864;27.676;2023-08-12T09:55:23;0.50;;;0.50;;
64678;SDS011;51094;53.864;27.676;2023-08-12T09:57:51;0.70;;;0.70;;
64678;SDS011;51094;53.864;27.676;2023-08-12T10:00:19;0.70;;;0.70;;
64678;SDS011;51094;53.864;27.676;2023-08-12T10:02:52;0.70;;;0.70;;
64678;SDS011;51094;53.864;27.676;2023-08-12T10:05:25;0.73;;;0.73;;
64678;SDS011;51094;53.864;27.676;2023-08-12T10:07:54;0.60;;;0.60;;
64678;SDS011;51094;53.864;27.676;2023-08-12T10:10:22;0.60;;;0.60;;
64678;SDS011;51094;53.864;27.676;2023-08-12T10:12:49;0.70;;;0.70;;
64678;SDS011;51094;53.864;27.676;2023-08-12T10:15:16;0.60;;;0.60;;
64678;SDS011;51094;53.864;27.676;2023-08-12T10:17:43;0.80;;;0.80;;
64678;SDS011;51094;53.864;27.676;2023-08-12T10:20:14;0.60;;;0.60;;
64678;SDS011;51094;53.864;27.676;2023-08-12T10:22:46;0.70;;;0.70;;
64678;SDS011;51094;53.864;27.676;2023-08-12T10:25:13;0.60;;;0.60;;
64678;SDS011;51094;53.864;27.676;2023-08-12T10:27:41;0.70;;;0.70;;
64678;SDS011;51094;53.864;27.676;2023-08-12T10:30:08;0.60;;;0.60;;
64678;SDS011;51094;53.864;27.676;2023-08-12T10:32:36;0.55;;;0.55;;
64678;SDS011;51094;53.864;27.676;2023-08-12T10:35:04;0.60;;;0.60;;
64678;SDS011;51094;53.864;27.676;2023-08-12T10:37:32;0.60;;;0.60;;
64678;SDS011;51094;53.864;27.676;2023-08-12T10:40:04;0.50;;;0.50;;
64678;SDS011;51094;53.864;27.676;2023-08-12T10:42:41;0.60;;;0.60;;
64678;SDS011;51094;53.864;27.676;2023-08-12T10:45:13;0.63;;;0.63;;
64678;SDS011;51094;53.864;27.676;2023-08-12T10:50:49;0.70;;;0.70;;
64678;SDS011;51094;53.864;27.676;2023-08-12T10:53:23;0.50;;;0.50;;
64678;SDS011;51094;53.864;27.676;2023-08-12T10:55:59;0.60;;;0.60;;
64678;SDS011;51094;53.864;27.676;2023-08-12T10:58:28;0.60;;;0.60;;
64678;SDS011;51094;53.864;27.676;2023-08-12T11:01:21;0.60;;;0.60;;
64678;SDS011;51094;53.864;27.676;2023-08-12T11:06:17;0.57;;;0.57;;
64678;SDS011;51094;53.864;27.676;2023-08-12T11:08:46;0.60;;;0.60;;
64678;SDS011;51094;53.864;27.676;2023-08-12T11:11:21;0.60;;;0.60;;
64678;SDS011;51094;53.864;27.676;2023-08-12T11:13:58;0.60;;;0.60;;
64678;SDS011;51094;53.864;27.676;2023-08-12T11:16:35;0.60;;;0.60;;
64678;SDS011;51094;53.864;27.676;2023-08-12T11:19:03;0.60;;;0.60;;
64678;SDS011;51094;53.864;27.676;2023-08-12T11:21:30;0.73;;;0.73;;
64678;SDS011;51094;53.864;27.676;2023-08-12T11:23:58;0.60;;;0.60;;
64678;SDS011;51094;53.864;27.676;2023-08-12T11:26:26;0.70;;;0.70;;
64678;SDS011;51094;53.864;27.676;2023-08-12T11:28:53;0.70;;;0.70;;
64678;SDS011;51094;53.864;27.676;2023-08-12T11:31:20;0.60;;;0.60;;
64678;SDS011;51094;53.864;27.676;2023-08-12T11:33:49;0.80;;;0.80;;
64678;SDS011;51094;53.864;27.676;2023-08-12T11:36:16;0.80;;;0.80;;
64678;SDS011;51094;53.864;27.676;2023-08-12T11:38:43;0.70;;;0.70;;
64678;SDS011;51094;53.864;27.676;2023-08-12T11:41:10;0.60;;;0.60;;
64678;SDS011;51094;53.864;27.676;2023-08-12T11:43:37;0.52;;;0.52;;
64678;SDS011;51094;53.864;27.676;2023-08-12T11:46:04;0.55;;;0.55;;
64678;SDS011;51094;53.864;27.676;2023-08-12T11:48:32;0.52;;;0.52;;
64678;SDS011;51094;53.864;27.676;2023-08-12T11:50:59;0.50;;;0.50;;
64678;SDS011;51094;53.864;27.676;2023-08-12T11:53:26;0.60;;;0.60;;
64678;SDS011;51094;53.864;27.676;2023-08-12T11:55:53;0.60;;;0.60;;
64678;SDS011;51094;53.864;27.676;2023-08-12T11:58:20;0.50;;;0.50;;
64678;SDS011;51094;53.864;27.676;2023-08-12T12:00:49;0.60;;;0.60;;
64678;SDS011;51094;53.864;27.676;2023-08-12T12:03:16;0.65;;;0.52;;
64678;SDS011;51094;53.864;27.676;2023-08-12T12:08:13;0.60;;;0.60;;
64678;SDS011;51094;53.864;27.676;2023-08-12T12:13:07;0.60;;;0.60;;
64678;SDS011;51094;53.864;27.676;2023-08-12T12:15:41;0.52;;;0.52;;
64678;SDS011;51094;53.864;27.676;2023-08-12T12:18:09;0.60;;;0.60;;
64678;SDS011;51094;53.864;27.676;2023-08-12T12:20:53;0.57;;;0.57;;
64678;SDS011;51094;53.864;27.676;2023-08-12T12:23:21;0.60;;;0.60;;
64678;SDS011;51094;53.864;27.676;2023-08-12T12:25:48;0.50;;;0.50;;
64678;SDS011;51094;53.864;27.676;2023-08-12T12:28:15;0.60;;;0.60;;
64678;SDS011;51094;53.864;27.676;2023-08-12T12:30:42;0.70;;;0.70;;
64678;SDS011;51094;53.864;27.676;2023-08-12T12:33:09;0.57;;;0.57;;
64678;SDS011;51094;53.864;27.676;2023-08-12T12:35:36;0.65;;;0.65;;
64678;SDS011;51094;53.864;27.676;2023-08-12T12:38:21;0.52;;;0.52;;
64678;SDS011;51094;53.864;27.676;2023-08-12T12:40:48;0.70;;;0.70;;
64678;SDS011;51094;53.864;27.676;2023-08-12T12:43:14;0.50;;;0.50;;
64678;SDS011;51094;53.864;27.676;2023-08-12T12:45:41;0.60;;;0.60;;
64678;SDS011;51094;53.864;27.676;2023-08-12T12:48:08;0.50;;;0.50;;
64678;SDS011;51094;53.864;27.676;2023-08-12T12:50:35;0.50;;;0.50;;
64678;SDS011;51094;53.864;27.676;2023-08-12T12:53:04;0.40;;;0.40;;
64678;SDS011;51094;53.864;27.676;2023-08-12T12:55:31;0.45;;;0.45;;
64678;SDS011;51094;53.864;27.676;2023-08-12T12:57:58;0.50;;;0.50;;
64678;SDS011;51094;53.864;27.676;2023-08-12T13:00:25;0.60;;;0.60;;
64678;SDS011;51094;53.864;27.676;2023-08-12T13:02:52;0.60;;;0.60;;
64678;SDS011;51094;53.864;27.676;2023-08-12T13:05:19;0.60;;;0.60;;
64678;SDS011;51094;53.864;27.676;2023-08-12T13:07:46;0.60;;;0.60;;
64678;SDS011;51094;53.864;27.676;2023-08-12T13:10:13;0.60;;;0.60;;
64678;SDS011;51094;53.864;27.676;2023-08-12T13:12:40;0.50;;;0.50;;
64678;SDS011;51094;53.864;27.676;2023-08-12T13:15:07;0.60;;;0.60;;
64678;SDS011;51094;53.864;27.676;2023-08-12T13:17:35;0.60;;;0.60;;
64678;SDS011;51094;53.864;27.676;2023-08-12T13:20:02;0.60;;;0.60;;
64678;SDS011;51094;53.864;27.676;2023-08-12T13:22:29;0.50;;;0.50;;
64678;SDS011;51094;53.864;27.676;2023-08-12T13:24:56;0.60;;;0.60;;
64678;SDS011;51094;53.864;27.676;2023-08-12T13:27:23;0.50;;;0.50;;
64678;SDS011;51094;53.864;27.676;2023-08-12T13:29:50;0.40;;;0.40;;
64678;SDS011;51094;53.864;27.676;2023-08-12T13:32:17;0.50;;;0.50;;
64678;SDS011;51094;53.864;27.676;2023-08-12T13:34:44;0.60;;;0.60;;
64678;SDS011;51094;53.864;27.676;2023-08-12T13:37:13;0.40;;;0.40;;
64678;SDS011;51094;53.864;27.676;2023-08-12T13:39:40;0.43;;;0.43;;
64678;SDS011;51094;53.864;27.676;2023-08-12T13:42:07;0.60;;;0.60;;
64678;SDS011;51094;53.864;27.676;2023-08-12T13:44:33;0.57;;;0.57;;
64678;SDS011;51094;53.864;27.676;2023-08-12T13:47:00;0.50;;;0.50;;
64678;SDS011;51094;53.864;27.676;2023-08-12T13:49:27;0.70;;;0.70;;
64678;SDS011;51094;53.864;27.676;2023-08-12T13:51:54;0.60;;;0.60;;
64678;SDS011;51094;53.864;27.676;2023-08-12T13:54:21;0.45;;;0.45;;
64678;SDS011;51094;53.864;27.676;2023-08-12T13:56:48;0.50;;;0.50;;
64678;SDS011;51094;53.864;27.676;2023-08-12T13:59:15;0.60;;;0.60;;
64678;SDS011;51094;53.864;27.676;2023-08-12T14:01:41;0.55;;;0.55;;
64678;SDS011;51094;53.864;27.676;2023-08-12T14:04:09;0.60;;;0.60;;
64678;SDS011;51094;53.864;27.676;2023-08-12T14:06:36;0.60;;;0.60;;
64678;SDS011;51094;53.864;27.676;2023-08-12T14:09:03;0.50;;;0.50;;
64678;SDS011;51094;53.864;27.676;2023-08-12T14:11:30;0.60;;;0.60;;
64678;SDS011;51094;53.864;27.676;2023-08-12T14:13:57;0.60;;;0.60;;
64678;SDS011;51094;53.864;27.676;2023-08-12T14:16:24;0.65;;;0.65;;
64678;SDS011;51094;53.864;27.676;2023-08-12T14:18:51;0.60;;;0.60;;
64678;SDS011;51094;53.864;27.676;2023-08-12T14:21:38;0.70;;;0.70;;
64678;SDS011;51094;53.864;27.676;2023-08-12T14:24:05;0.55;;;0.55;;
64678;SDS011;51094;53.864;27.676;2023-08-12T14:26:32;0.57;;;0.57;;
64678;SDS011;51094;53.864;27.676;2023-08-12T14:28:59;0.70;;;0.70;;
64678;SDS011;51094;53.864;27.676;2023-08-12T14:31:26;0.60;;;0.60;;
64678;SDS011;51094;53.864;27.676;2023-08-12T14:33:53;0.50;;;0.50;;
64678;SDS011;51094;53.864;27.676;2023-08-12T14:36:20;0.60;;;0.60;;
64678;SDS011;51094;53.864;27.676;2023-08-12T14:38:47;0.50;;;0.50;;
64678;SDS011;51094;53.864;27.676;2023-08-12T14:41:13;0.75;;;0.75;;
64678;SDS011;51094;53.864;27.676;2023-08-12T14:43:40;0.55;;;0.55;;
64678;SDS011;51094;53.864;27.676;2023-08-12T14:46:07;0.70;;;0.70;;
64678;SDS011;51094;53.864;27.676;2023-08-12T14:48:34;0.68;;;0.68;;
64678;SDS011;51094;53.864;27.676;2023-08-12T14:51:02;0.60;;;0.60;;
64678;SDS011;51094;53.864;27.676;2023-08-12T14:53:28;0.60;;;0.60;;